createdAt,value
2022-09-06T00:01:13.187Z,5.65
2022-09-06T00:06:16.491Z,5.70
2022-09-06T00:11:13.669Z,5.82
2022-09-06T00:16:12.830Z,5.80
2022-09-06T00:21:16.949Z,5.85
2022-09-06T00:26:13.226Z,6.10
2022-09-06T00:31:10.849Z,5.68
2022-09-06T00:36:07.818Z,5.57
2022-09-06T00:41:05.275Z,5.90
2022-09-06T00:46:02.157Z,5.90
2022-09-06T00:51:00.955Z,5.40
2022-09-06T00:55:57.375Z,5.70
2022-09-06T01:00:53.627Z,5.78
2022-09-06T01:05:56.281Z,5.47
2022-09-06T01:11:15.337Z,5.80
2022-09-06T01:16:11.668Z,6.00
2022-09-06T01:21:19.443Z,5.53
2022-09-06T01:26:15.755Z,5.70
2022-09-06T01:31:18.296Z,6.57
2022-09-06T01:36:16.896Z,5.57
2022-09-06T01:41:13.166Z,6.07
2022-09-06T01:46:24.574Z,5.57
2022-09-06T01:51:29.846Z,5.68
2022-09-06T01:56:32.177Z,5.43
2022-09-06T02:01:37.355Z,5.45
2022-09-06T02:06:38.754Z,5.50
2022-09-06T02:11:41.802Z,5.55
2022-09-06T02:16:39.432Z,5.55
2022-09-06T02:21:37.759Z,5.57
2022-09-06T02:26:36.647Z,5.70
2022-09-06T02:31:42.908Z,6.38
2022-09-06T02:36:39.251Z,5.30
2022-09-06T02:41:35.655Z,5.43
2022-09-06T02:46:31.991Z,5.72
2022-09-06T02:51:28.339Z,5.60
2022-09-06T02:56:24.854Z,6.05
2022-09-06T03:01:21.620Z,5.60
2022-09-06T03:06:17.946Z,5.13
2022-09-06T03:11:14.225Z,5.38
2022-09-06T03:16:10.614Z,5.13
2022-09-06T03:21:07.059Z,6.03
2022-09-06T03:26:03.331Z,5.60
2022-09-06T03:30:59.771Z,5.80
2022-09-06T03:35:57.852Z,6.70
2022-09-06T03:40:54.554Z,5.90
2022-09-06T03:45:51.967Z,6.00
2022-09-06T03:50:49.181Z,6.60
2022-09-06T03:55:46.327Z,6.00
2022-09-06T04:00:42.678Z,6.50
2022-09-06T04:05:39.087Z,6.22
2022-09-06T04:10:35.342Z,6.28
2022-09-06T04:15:31.994Z,6.32
2022-09-06T04:20:28.231Z,6.68
2022-09-06T04:25:24.593Z,6.72
2022-09-06T04:30:21.051Z,7.03
2022-09-06T04:35:17.468Z,6.60
2022-09-06T04:40:13.907Z,7.60
2022-09-06T04:45:10.592Z,8.02
2022-09-06T04:50:07.181Z,7.80
2022-09-06T04:55:03.823Z,8.00
2022-09-06T05:00:00.222Z,8.32
2022-09-06T05:04:57.068Z,8.00
2022-09-06T05:09:53.379Z,8.05
2022-09-06T05:14:49.895Z,7.97
2022-09-06T05:19:46.145Z,8.50
2022-09-06T05:24:42.450Z,8.02
2022-09-06T05:29:38.968Z,7.88
2022-09-06T05:34:35.276Z,8.40
2022-09-06T05:39:31.627Z,8.20
2022-09-06T05:44:28.023Z,8.23
2022-09-06T05:49:24.336Z,7.05
2022-09-06T05:54:20.624Z,6.68
2022-09-06T05:59:17.206Z,6.35
2022-09-06T06:04:13.467Z,6.80
2022-09-06T06:09:09.852Z,6.50
2022-09-06T06:14:06.158Z,6.25
2022-09-06T06:19:02.411Z,6.60
2022-09-06T06:24:02.752Z,6.10
2022-09-06T06:29:01.896Z,6.60
2022-09-06T06:33:58.641Z,7.00
2022-09-06T06:38:55.306Z,5.78
2022-09-06T06:43:55.927Z,6.10
2022-09-06T06:48:55.256Z,6.00
2022-09-06T06:53:52.648Z,6.18
2022-09-06T06:58:50.117Z,5.78
2022-09-06T07:03:49.487Z,6.30
2022-09-06T07:08:46.124Z,6.43
2022-09-06T07:13:42.930Z,6.07
2022-09-06T07:18:42.367Z,6.20
2022-09-06T07:29:01.039Z,6.28
2022-09-06T07:33:57.474Z,6.32
2022-09-06T07:38:54.255Z,6.05
2022-09-06T07:43:54.662Z,6.07
2022-09-06T07:48:51.160Z,6.75
2022-09-06T07:53:50.554Z,6.47
2022-09-06T07:58:49.366Z,5.85
2022-09-06T08:03:46.465Z,7.07
2022-09-06T08:08:58.662Z,6.20
2022-09-06T08:13:56.266Z,7.20
2022-09-06T08:18:53.454Z,6.68
2022-09-06T08:23:51.148Z,6.65
2022-09-06T08:28:47.463Z,6.75
2022-09-06T08:33:44.115Z,6.68
2022-09-06T08:38:40.589Z,6.50
2022-09-06T08:43:37.481Z,6.40
2022-09-06T08:48:36.883Z,6.43
2022-09-06T08:53:36.025Z,6.72
2022-09-06T08:58:37.881Z,7.05
2022-09-06T09:03:38.286Z,6.80
2022-09-06T09:08:40.804Z,6.63
2022-09-06T09:13:56.210Z,6.30
2022-09-06T09:18:53.733Z,6.53
2022-09-06T09:23:54.862Z,6.60
2022-09-06T09:29:10.267Z,7.30
2022-09-06T09:34:11.203Z,7.47
2022-09-06T09:39:10.856Z,7.47
2022-09-06T09:44:11.799Z,7.30
2022-09-06T09:49:28.696Z,7.82
2022-09-06T09:54:32.349Z,7.15
2022-09-06T09:59:34.564Z,7.30
2022-09-06T10:09:39.245Z,7.07
2022-09-06T10:14:42.837Z,6.88
2022-09-06T10:19:40.983Z,7.00
2022-09-06T10:24:55.710Z,6.88
2022-09-06T10:29:58.280Z,6.10
2022-09-06T10:35:14.561Z,6.70
2022-09-06T10:40:12.574Z,7.20
2022-09-06T10:45:38.492Z,6.70
2022-09-06T10:50:53.589Z,7.05
2022-09-06T10:55:52.830Z,7.20
2022-09-06T11:00:50.243Z,6.20
2022-09-06T11:05:50.318Z,7.13
2022-09-06T11:10:49.666Z,7.00
2022-09-06T11:15:50.243Z,6.93
2022-09-06T11:20:57.779Z,7.03
2022-09-06T11:26:03.544Z,6.57
2022-09-06T11:31:00.282Z,6.82
2022-09-06T11:36:16.706Z,7.07
2022-09-06T11:41:17.138Z,6.88
2022-09-06T11:46:32.791Z,7.40
2022-09-06T11:51:36.984Z,6.97
2022-09-06T11:56:33.226Z,7.05
2022-09-06T12:01:29.527Z,6.35
2022-09-06T12:06:27.555Z,6.50
2022-09-06T12:11:37.467Z,6.68
2022-09-06T12:16:52.284Z,7.07
2022-09-06T12:21:52.148Z,6.88
2022-09-06T12:26:55.566Z,7.65
2022-09-06T12:31:53.765Z,6.97
2022-09-06T12:36:54.894Z,7.35
2022-09-06T12:41:55.008Z,7.38
2022-09-06T12:46:51.650Z,7.50
2022-09-06T12:51:48.164Z,7.63
2022-09-06T12:56:44.472Z,7.53
2022-09-06T13:01:44.831Z,7.35
2022-09-06T13:06:42.720Z,7.53
2022-09-06T13:11:42.044Z,7.43
2022-09-06T13:16:42.401Z,7.35
2022-09-06T13:21:39.363Z,6.80
2022-09-06T13:26:37.440Z,7.60
2022-09-06T13:31:33.925Z,7.80
2022-09-06T13:36:31.337Z,7.82
2022-09-06T13:41:27.730Z,7.60
2022-09-06T13:46:24.230Z,7.40
2022-09-06T13:51:20.948Z,7.45
2022-09-06T13:56:17.671Z,8.02
2022-09-06T14:01:14.419Z,7.90
2022-09-06T14:06:10.894Z,7.03
2022-09-06T14:11:08.428Z,8.35
2022-09-06T14:16:05.862Z,6.60
2022-09-06T14:21:02.270Z,6.70
2022-09-06T14:25:59.583Z,7.15
2022-09-06T14:30:55.925Z,6.45
2022-09-06T14:35:52.339Z,6.97
2022-09-06T14:40:48.716Z,7.18
2022-09-06T14:45:45.182Z,6.80
2022-09-06T14:50:41.762Z,6.68
2022-09-06T14:55:39.610Z,6.72
2022-09-06T15:00:36.570Z,7.05
2022-09-06T15:05:32.905Z,7.25
2022-09-06T15:10:29.327Z,6.95
2022-09-06T15:15:26.182Z,7.25
2022-09-06T15:20:22.558Z,6.82
2022-09-06T15:25:18.878Z,7.05
2022-09-06T15:30:15.272Z,7.15
2022-09-06T15:35:11.644Z,6.80
2022-09-06T15:40:08.382Z,7.53
2022-09-06T15:45:06.151Z,7.57
2022-09-06T15:50:02.560Z,7.57
2022-09-06T15:55:17.314Z,7.63
2022-09-06T16:00:13.973Z,7.50
2022-09-06T16:05:10.655Z,7.28
2022-09-06T16:10:06.982Z,7.43
2022-09-06T16:15:03.965Z,7.35
2022-09-06T16:20:01.549Z,6.80
2022-09-06T16:24:57.961Z,6.90
2022-09-06T16:29:55.125Z,7.07
2022-09-06T16:34:51.435Z,7.15
2022-09-06T16:39:47.878Z,6.68
2022-09-06T16:44:44.208Z,6.53
2022-09-06T16:49:41.050Z,6.45
2022-09-06T16:54:37.311Z,6.60
2022-09-06T16:59:34.303Z,6.60
2022-09-06T17:04:30.555Z,6.68
2022-09-06T17:09:26.920Z,7.40
2022-09-06T17:14:23.273Z,7.32
2022-09-06T17:19:19.635Z,7.07
2022-09-06T17:24:16.472Z,6.63
2022-09-06T17:29:12.791Z,6.82
2022-09-06T17:34:09.155Z,7.10
2022-09-06T17:39:13.816Z,6.70
2022-09-06T17:44:12.894Z,6.55
2022-09-06T17:49:09.340Z,7.05
2022-09-06T17:54:06.152Z,6.70
2022-09-06T17:59:03.964Z,6.80
2022-09-06T18:04:00.658Z,7.25
2022-09-06T18:08:58.125Z,7.07
2022-09-06T18:13:55.909Z,6.75
2022-09-06T18:18:53.265Z,7.00
2022-09-06T18:23:49.808Z,7.00
2022-09-06T18:28:46.335Z,6.72
2022-09-06T18:33:42.893Z,6.55
2022-09-06T18:38:39.754Z,6.65
2022-09-06T18:43:37.198Z,6.53
2022-09-06T18:48:34.204Z,6.20
2022-09-06T18:53:30.791Z,6.50
2022-09-06T18:58:27.347Z,6.47
2022-09-06T19:03:23.739Z,6.63
2022-09-06T19:08:20.043Z,8.43
2022-09-06T19:13:16.426Z,6.50
2022-09-06T19:18:12.756Z,7.13
2022-09-06T19:23:09.043Z,6.20
2022-09-06T19:28:05.315Z,6.53
2022-09-06T19:33:01.600Z,6.72
2022-09-06T19:37:58.014Z,6.20
2022-09-06T19:42:54.298Z,6.85
2022-09-06T19:47:50.631Z,6.63
2022-09-06T19:52:47.267Z,6.53
2022-09-06T19:57:43.547Z,5.90
2022-09-06T20:02:39.929Z,6.40
2022-09-06T20:07:36.226Z,6.45
2022-09-06T20:12:32.659Z,7.18
2022-09-06T20:17:33.706Z,6.13
2022-09-06T20:22:31.131Z,5.83
2022-09-06T20:27:27.494Z,6.70
2022-09-06T20:32:23.734Z,5.53
2022-09-06T20:37:20.137Z,5.85
2022-09-06T20:42:16.450Z,6.45
2022-09-06T20:47:12.765Z,6.03
2022-09-06T20:52:09.155Z,5.78
2022-09-06T20:57:05.540Z,6.10
2022-09-06T21:02:10.535Z,6.55
2022-09-06T21:07:13.543Z,6.03
2022-09-06T21:12:12.252Z,5.88
2022-09-06T21:17:16.490Z,6.25
2022-09-06T21:22:13.731Z,5.95
2022-09-06T21:27:23.110Z,5.57
2022-09-06T21:32:21.114Z,5.90
2022-09-06T21:37:29.137Z,5.75
2022-09-06T21:42:32.236Z,6.15
2022-09-06T21:47:31.968Z,6.30
2022-09-06T21:52:34.351Z,5.95
2022-09-06T21:57:33.231Z,6.15
2022-09-06T22:02:38.194Z,6.03
2022-09-06T22:07:38.859Z,6.18
2022-09-06T22:12:51.085Z,5.40
2022-09-06T22:17:49.899Z,5.73
2022-09-06T22:22:56.774Z,6.10
2022-09-06T22:27:55.614Z,5.30
2022-09-06T22:32:57.694Z,6.25
2022-09-06T22:37:56.591Z,5.43
2022-09-06T22:42:54.080Z,5.63
2022-09-06T22:47:52.086Z,5.20
2022-09-06T22:52:51.142Z,5.22
2022-09-06T22:57:57.634Z,5.15
2022-09-06T23:02:54.942Z,5.10
2022-09-06T23:07:56.603Z,5.10
2022-09-06T23:13:02.147Z,5.30
2022-09-06T23:18:03.258Z,5.15
2022-09-06T23:23:06.617Z,5.43
2022-09-06T23:28:10.680Z,5.13
2022-09-06T23:33:13.874Z,5.00
2022-09-06T23:38:15.484Z,5.80
2022-09-06T23:43:12.030Z,5.38
2022-09-06T23:48:09.595Z,6.22
2022-09-06T23:53:06.979Z,5.18
2022-09-06T23:58:03.433Z,5.45
